createdAt,value
2019-01-19T00:02:20.087Z,45.92
2019-01-19T00:07:29.218Z,45.89
2019-01-19T00:12:53.566Z,45.90
2019-01-19T00:18:00.089Z,45.87
2019-01-19T00:23:12.607Z,45.86
2019-01-19T00:28:34.181Z,45.85
2019-01-19T00:33:57.647Z,45.85
2019-01-19T00:39:09.883Z,45.85
2019-01-19T00:44:28.651Z,45.85
2019-01-19T00:49:32.667Z,45.84
2019-01-19T00:54:39.536Z,45.83
2019-01-19T00:59:43.820Z,45.79
2019-01-19T01:04:52.934Z,45.79
2019-01-19T01:10:05.206Z,45.77
2019-01-19T01:15:20.472Z,45.78
2019-01-19T01:20:36.255Z,45.77
2019-01-19T01:25:48.856Z,45.76
2019-01-19T01:30:55.391Z,45.77
2019-01-19T01:36:10.658Z,45.77
2019-01-19T01:41:39.767Z,45.73
2019-01-19T01:47:12.013Z,45.75
2019-01-19T01:52:35.382Z,45.76
2019-01-19T01:57:40.286Z,45.73
2019-01-19T02:02:58.832Z,45.75
2019-01-19T02:08:14.306Z,45.72
2019-01-19T02:13:37.187Z,45.79
2019-01-19T02:18:58.880Z,45.79
2019-01-19T02:24:26.563Z,45.68
2019-01-19T02:29:35.899Z,45.69
2019-01-19T02:34:45.246Z,45.68
2019-01-19T02:40:00.901Z,45.69
2019-01-19T02:45:23.862Z,45.67
2019-01-19T02:50:30.454Z,45.67
2019-01-19T02:55:43.088Z,45.66
2019-01-19T03:00:49.612Z,45.67
2019-01-19T03:05:56.546Z,45.66
2019-01-19T03:11:05.977Z,45.67
2019-01-19T03:16:18.602Z,45.62
2019-01-19T03:21:43.259Z,45.63
2019-01-19T03:26:52.729Z,45.63
2019-01-19T03:32:05.343Z,45.60
2019-01-19T03:37:40.515Z,45.60
2019-01-19T03:42:55.919Z,45.60
2019-01-19T03:48:08.268Z,45.58
2019-01-19T03:53:19.338Z,45.56
2019-01-19T03:58:28.407Z,45.56
2019-01-19T04:03:46.836Z,45.55
2019-01-19T04:09:11.689Z,45.51
2019-01-19T04:14:29.870Z,45.50
2019-01-19T04:20:00.542Z,45.52
2019-01-19T04:25:12.923Z,45.50
2019-01-19T04:30:16.460Z,45.50
2019-01-19T04:35:19.937Z,45.49
2019-01-19T04:40:23.395Z,45.48
2019-01-19T04:45:26.865Z,45.47
2019-01-19T04:50:30.331Z,45.43
2019-01-19T04:55:33.795Z,45.42
2019-01-19T05:00:37.443Z,45.40
2019-01-19T05:05:40.914Z,45.38
2019-01-19T05:10:44.375Z,45.31
2019-01-19T05:15:47.843Z,45.30
2019-01-19T05:20:52.095Z,45.28
2019-01-19T05:25:55.630Z,45.24
2019-01-19T05:30:59.305Z,45.26
2019-01-19T05:36:02.844Z,45.23
2019-01-19T05:41:06.311Z,45.25
2019-01-19T05:46:09.779Z,45.24
2019-01-19T05:51:13.247Z,45.22
2019-01-19T05:56:16.955Z,45.22
2019-01-19T06:01:21.090Z,45.20
2019-01-19T06:06:24.841Z,45.19
2019-01-19T06:11:28.340Z,45.17
2019-01-19T06:16:31.810Z,45.14
2019-01-19T06:21:35.686Z,45.14
2019-01-19T06:26:39.173Z,45.11
2019-01-19T06:31:42.665Z,45.14
2019-01-19T06:36:46.136Z,45.16
2019-01-19T06:41:49.615Z,45.17
2019-01-19T06:46:53.106Z,45.19
2019-01-19T06:51:56.591Z,45.20
2019-01-19T06:57:00.079Z,45.17
2019-01-19T07:02:03.573Z,45.16
2019-01-19T07:07:07.060Z,45.16
2019-01-19T07:12:10.741Z,45.12
2019-01-19T07:17:14.230Z,44.92
2019-01-19T07:22:17.715Z,44.94
2019-01-19T07:27:21.203Z,45.03
2019-01-19T07:32:24.692Z,45.04
2019-01-19T07:37:28.181Z,45.05
2019-01-19T07:42:31.713Z,45.05
2019-01-19T07:47:35.897Z,45.08
2019-01-19T07:52:39.484Z,45.05
2019-01-19T07:57:42.972Z,45.06
2019-01-19T08:02:46.455Z,45.05
2019-01-19T08:07:49.945Z,45.02
2019-01-19T08:12:53.425Z,45.06
2019-01-19T08:17:56.910Z,28.56
2019-01-19T08:23:00.391Z,24.90
2019-01-19T08:28:03.942Z,28.25
2019-01-19T08:33:07.422Z,31.72
2019-01-19T08:38:10.906Z,33.63
2019-01-19T08:43:25.061Z,35.29
2019-01-19T08:48:28.501Z,36.27
2019-01-19T08:53:31.987Z,37.15
2019-01-19T08:58:35.470Z,37.90
2019-01-19T09:03:38.960Z,38.46
2019-01-19T09:08:42.443Z,38.93
2019-01-19T09:13:45.924Z,39.20
2019-01-19T09:18:49.410Z,39.37
2019-01-19T09:23:54.599Z,39.72
2019-01-19T09:28:58.092Z,40.02
2019-01-19T09:34:01.579Z,40.13
2019-01-19T09:39:08.118Z,40.35
2019-01-19T09:44:11.821Z,40.67
2019-01-19T09:49:15.467Z,40.89
2019-01-19T09:54:18.971Z,41.15
2019-01-19T09:59:22.439Z,41.33
2019-01-19T10:04:25.929Z,41.53
2019-01-19T10:09:29.417Z,41.61
2019-01-19T10:14:32.898Z,41.70
2019-01-19T10:19:36.382Z,41.82
2019-01-19T10:24:39.864Z,41.92
2019-01-19T10:29:43.520Z,42.10
2019-01-19T10:34:47.004Z,42.37
2019-01-19T10:39:50.489Z,42.56
2019-01-19T10:44:53.974Z,42.72
2019-01-19T10:49:57.458Z,42.80
2019-01-19T10:55:00.955Z,42.95
2019-01-19T11:00:10.039Z,43.36
2019-01-19T11:05:14.936Z,43.36
2019-01-19T11:10:20.766Z,43.40
2019-01-19T11:15:24.419Z,43.87
2019-01-19T11:20:29.952Z,43.87
2019-01-19T11:25:33.599Z,44.03
2019-01-19T11:30:37.079Z,44.04
2019-01-19T11:35:40.563Z,44.48
2019-01-19T11:40:44.051Z,45.24
2019-01-19T11:45:47.537Z,46.26
2019-01-19T11:50:51.039Z,46.75
2019-01-19T11:55:54.523Z,46.55
2019-01-19T12:00:58.011Z,46.30
2019-01-19T12:06:01.867Z,46.22
2019-01-19T12:11:05.422Z,46.27
2019-01-19T12:16:08.910Z,46.19
2019-01-19T12:21:12.390Z,46.30
2019-01-19T12:26:15.879Z,46.40
2019-01-19T12:31:19.364Z,46.36
2019-01-19T12:36:22.846Z,46.35
2019-01-19T12:41:26.335Z,46.42
2019-01-19T12:46:29.805Z,46.35
2019-01-19T12:51:33.347Z,46.36
2019-01-19T12:56:36.822Z,46.39
2019-01-19T13:01:40.292Z,46.40
2019-01-19T13:06:43.764Z,46.46
2019-01-19T13:11:50.286Z,46.29
2019-01-19T13:17:29.835Z,46.56
2019-01-19T13:22:54.482Z,46.37
2019-01-19T13:28:01.071Z,46.34
2019-01-19T13:33:13.738Z,46.13
2019-01-19T13:38:45.340Z,46.15
2019-01-19T13:44:03.922Z,46.44
2019-01-19T13:49:30.290Z,46.30
2019-01-19T13:54:42.789Z,46.26
2019-01-19T13:59:55.329Z,46.31
2019-01-19T14:05:16.266Z,45.92
2019-01-19T14:10:22.806Z,46.09
2019-01-19T14:15:35.397Z,46.08
2019-01-19T14:21:00.438Z,46.04
2019-01-19T14:26:19.099Z,45.96
2019-01-19T14:31:45.248Z,43.49
2019-01-19T14:37:00.835Z,41.15
2019-01-19T14:42:28.441Z,39.18
2019-01-19T14:47:44.173Z,39.30
2019-01-19T14:52:53.180Z,40.21
2019-01-19T14:58:05.072Z,40.51
2019-01-19T15:03:26.880Z,40.79
2019-01-19T15:08:36.435Z,41.24
2019-01-19T15:13:52.006Z,41.59
2019-01-19T15:19:13.773Z,41.85
2019-01-19T15:24:20.575Z,41.88
2019-01-19T15:29:27.095Z,41.98
2019-01-19T15:35:04.209Z,42.04
2019-01-19T15:40:25.998Z,42.17
2019-01-19T15:45:44.452Z,42.35
2019-01-19T15:51:10.995Z,42.46
2019-01-19T15:56:42.155Z,42.60
2019-01-19T16:01:57.632Z,42.72
2019-01-19T16:07:10.133Z,42.86
2019-01-19T16:12:31.531Z,43.19
2019-01-19T16:17:43.579Z,43.45
2019-01-19T16:22:52.966Z,43.53
2019-01-19T16:28:25.260Z,43.50
2019-01-19T16:33:40.337Z,43.49
2019-01-19T16:38:49.405Z,43.35
2019-01-19T16:44:00.440Z,43.38
2019-01-19T16:49:24.845Z,43.48
2019-01-19T16:54:34.489Z,43.38
2019-01-19T16:59:44.033Z,43.39
2019-01-19T17:04:59.112Z,43.26
2019-01-19T17:10:05.649Z,43.13
2019-01-19T17:15:34.794Z,42.83
2019-01-19T17:20:56.546Z,43.22
2019-01-19T17:26:14.689Z,44.83
2019-01-19T17:31:36.258Z,45.18
2019-01-19T17:36:59.375Z,45.47
2019-01-19T17:42:14.673Z,47.02
2019-01-19T17:47:21.208Z,47.17
2019-01-19T17:52:36.515Z,47.11
2019-01-19T17:58:02.677Z,47.07
2019-01-19T18:03:27.698Z,46.81
2019-01-19T18:08:42.677Z,46.42
2019-01-19T18:13:55.407Z,45.58
2019-01-19T18:19:24.842Z,45.12
2019-01-19T18:24:37.160Z,45.57
2019-01-19T18:29:52.440Z,45.73
2019-01-19T18:35:10.756Z,45.83
2019-01-19T18:40:38.299Z,45.51
2019-01-19T18:45:47.418Z,45.25
2019-01-19T18:50:53.932Z,45.12
2019-01-19T18:56:18.789Z,45.02
2019-01-19T19:01:41.854Z,44.97
2019-01-19T19:06:54.176Z,44.96
2019-01-19T19:12:21.847Z,44.95
2019-01-19T19:17:40.098Z,44.95
2019-01-19T19:22:58.493Z,44.95
2019-01-19T19:28:24.440Z,44.98
2019-01-19T19:33:36.830Z,45.05
2019-01-19T19:38:48.899Z,45.14
2019-01-19T19:44:07.197Z,45.19
2019-01-19T19:49:37.639Z,45.22
2019-01-19T19:54:44.170Z,45.32
2019-01-19T19:59:47.662Z,45.35
2019-01-19T20:04:52.238Z,45.35
2019-01-19T20:09:55.726Z,45.39
2019-01-19T20:14:59.215Z,45.45
2019-01-19T20:20:02.968Z,45.48
2019-01-19T20:25:07.922Z,45.53
2019-01-19T20:30:14.458Z,45.56
2019-01-19T20:35:17.941Z,45.60
2019-01-19T20:40:24.413Z,45.60
2019-01-19T20:45:26.640Z,45.65
2019-01-19T20:50:30.133Z,45.71
2019-01-19T20:55:33.622Z,45.71
2019-01-19T21:00:37.007Z,45.79
2019-01-19T21:05:40.490Z,45.78
2019-01-19T21:10:43.981Z,45.85
2019-01-19T21:15:47.471Z,45.90
2019-01-19T21:20:50.957Z,45.91
2019-01-19T21:25:54.449Z,45.93
2019-01-19T21:30:57.932Z,45.94
2019-01-19T21:36:01.419Z,45.94
2019-01-19T21:41:04.902Z,45.95
2019-01-19T21:46:08.392Z,46.02
2019-01-19T21:51:11.877Z,46.03
2019-01-19T21:56:15.367Z,46.05
2019-01-19T22:01:18.846Z,46.06
2019-01-19T22:06:22.337Z,46.07
2019-01-19T22:11:25.829Z,46.13
2019-01-19T22:16:29.316Z,46.11
2019-01-19T22:21:32.806Z,46.16
2019-01-19T22:26:36.758Z,46.18
2019-01-19T22:31:40.258Z,46.20
2019-01-19T22:36:43.750Z,46.24
2019-01-19T22:41:47.242Z,46.21
2019-01-19T22:46:50.753Z,46.31
2019-01-19T22:51:54.219Z,46.38
2019-01-19T22:56:57.699Z,46.48
2019-01-19T23:02:01.252Z,46.48
2019-01-19T23:07:04.805Z,46.48
2019-01-19T23:12:08.291Z,46.54
2019-01-19T23:17:11.778Z,46.54
2019-01-19T23:22:15.262Z,46.54
2019-01-19T23:27:18.749Z,46.66
2019-01-19T23:32:22.232Z,46.63
2019-01-19T23:37:25.723Z,46.62
2019-01-19T23:42:29.213Z,46.64
2019-01-19T23:47:32.686Z,46.64
2019-01-19T23:52:36.166Z,46.61
2019-01-19T23:57:39.655Z,46.60
